Time;durP1;ratioP1;P1;durP2;ratioP2;P2;SDS_P1;SDS_P2;PMS_P1;PMS_P2;Temp;Humidity;BMP_temperature;BMP_pressure;BME280_temperature;BME280_humidity;BME280_pressure;Samples;Min_cycle;Max_cycle;Signal;HPM_P1;HPM_P2
2024/02/29 00:01:57;;;;;;;47.97;22.17;;;4.30;99.90;;;;;;5047671;28;20587;-61
2024/02/29 00:04:24;;;;;;;43.67;21.33;;;4.20;99.90;;;;;;5048638;28;20175;-61
2024/02/29 00:06:50;;;;;;;54.13;23.53;;;4.20;99.90;;;;;;5053734;28;20792;-61
2024/02/29 00:09:16;;;;;;;50.87;23.00;;;4.20;99.90;;;;;;5053468;28;20432;-61
2024/02/29 00:11:41;;;;;;;52.43;23.10;;;4.20;99.90;;;;;;5047633;28;20182;-60
2024/02/29 00:14:07;;;;;;;47.27;21.53;;;4.10;99.90;;;;;;5058076;28;20199;-59
2024/02/29 00:16:33;;;;;;;44.70;21.03;;;4.10;99.90;;;;;;5054500;28;20179;-59
2024/02/29 00:18:59;;;;;;;52.50;22.20;;;4.00;99.90;;;;;;5053119;28;20382;-60
2024/02/29 00:21:24;;;;;;;51.30;22.23;;;4.00;99.90;;;;;;5048948;28;20323;-61
2024/02/29 00:23:50;;;;;;;44.40;22.10;;;4.00;99.90;;;;;;5046298;28;20422;-59
2024/02/29 00:26:15;;;;;;;45.33;21.37;;;4.00;99.90;;;;;;5054939;28;20186;-61
2024/02/29 00:28:41;;;;;;;49.67;20.97;;;3.90;99.90;;;;;;5049471;28;20203;-61
2024/02/29 00:31:07;;;;;;;45.40;21.50;;;3.90;99.90;;;;;;5052630;28;20183;-59
2024/02/29 00:33:32;;;;;;;51.40;22.60;;;3.90;99.90;;;;;;5050068;28;20187;-59
2024/02/29 00:35:58;;;;;;;56.13;23.03;;;3.90;99.90;;;;;;5055223;28;20178;-59
2024/02/29 00:38:23;;;;;;;46.50;21.53;;;3.80;99.90;;;;;;5048098;28;20226;-61
2024/02/29 00:40:49;;;;;;;50.97;23.60;;;3.80;99.90;;;;;;5048097;28;20195;-61
2024/02/29 00:43:15;;;;;;;53.63;22.07;;;3.80;99.90;;;;;;5052621;28;20178;-61
2024/02/29 00:45:40;;;;;;;54.87;21.17;;;3.70;99.90;;;;;;5046944;28;20167;-61
2024/02/29 00:48:06;;;;;;;47.23;22.73;;;3.70;99.90;;;;;;5045351;28;20218;-61
2024/02/29 00:50:33;;;;;;;44.07;22.13;;;3.70;99.90;;;;;;5048609;28;20191;-58
2024/02/29 00:52:58;;;;;;;44.80;20.87;;;3.60;99.90;;;;;;5049598;28;20259;-58
2024/02/29 00:55:24;;;;;;;47.77;21.03;;;3.60;99.90;;;;;;5048276;28;21236;-59
2024/02/29 00:57:51;;;;;;;48.80;22.33;;;3.60;99.90;;;;;;5049034;28;20222;-61
2024/02/29 01:00:18;;;;;;;46.13;20.40;;;3.60;99.90;;;;;;5033156;28;20170;-61
2024/02/29 01:02:44;;;;;;;47.13;21.83;;;3.50;99.90;;;;;;5046962;28;20507;-59
2024/02/29 01:05:10;;;;;;;48.50;22.37;;;3.50;99.90;;;;;;5053240;28;20421;-59
2024/02/29 01:07:36;;;;;;;53.50;22.07;;;3.50;99.90;;;;;;5051763;28;20476;-59
2024/02/29 01:10:05;;;;;;;47.00;21.13;;;3.50;99.90;;;;;;5048393;28;20516;-59
2024/02/29 01:12:31;;;;;;;52.23;21.63;;;3.40;99.90;;;;;;5047827;28;20728;-59
2024/02/29 01:14:57;;;;;;;46.90;21.03;;;3.40;99.90;;;;;;5050789;28;20802;-59
2024/02/29 01:17:24;;;;;;;51.27;22.77;;;3.40;99.90;;;;;;5049030;28;20413;-60
2024/02/29 01:19:50;;;;;;;50.10;22.33;;;3.30;99.90;;;;;;5047243;28;20184;-60
2024/02/29 01:22:16;;;;;;;42.53;20.47;;;3.20;99.90;;;;;;5053664;28;20542;-60
2024/02/29 01:24:41;;;;;;;47.93;21.63;;;3.20;99.90;;;;;;5048571;28;20596;-60
2024/02/29 01:27:07;;;;;;;48.23;22.00;;;3.20;99.90;;;;;;5038195;28;20171;-60
2024/02/29 01:29:33;;;;;;;51.60;21.73;;;3.10;99.90;;;;;;5049262;28;20203;-61
2024/02/29 01:31:58;;;;;;;46.67;21.60;;;3.10;99.90;;;;;;5047443;28;20175;-60
2024/02/29 01:34:24;;;;;;;50.13;22.63;;;3.10;99.90;;;;;;5051503;28;20724;-60
2024/02/29 01:36:50;;;;;;;49.37;21.00;;;3.10;99.90;;;;;;5054255;28;20183;-60
2024/02/29 01:39:15;;;;;;;47.13;21.13;;;3.00;99.90;;;;;;5047102;28;20195;-59
2024/02/29 01:41:41;;;;;;;44.83;21.60;;;3.00;99.90;;;;;;5051031;28;20205;-59
2024/02/29 01:44:07;;;;;;;46.90;21.70;;;3.00;99.90;;;;;;5048931;28;20176;-60
2024/02/29 01:46:33;;;;;;;45.60;21.80;;;2.90;99.90;;;;;;5048817;28;20605;-59
2024/02/29 01:49:00;;;;;;;48.67;22.20;;;2.90;99.90;;;;;;5048948;28;20712;-59
2024/02/29 01:51:26;;;;;;;54.13;23.80;;;2.80;99.90;;;;;;5050942;28;20711;-60
2024/02/29 01:53:52;;;;;;;48.87;21.10;;;2.80;99.90;;;;;;5044416;28;20559;-59
2024/02/29 01:56:19;;;;;;;49.77;21.60;;;2.80;99.90;;;;;;5050230;28;20789;-59
2024/02/29 01:58:45;;;;;;;49.47;21.33;;;2.70;99.90;;;;;;5053240;28;21036;-60
2024/02/29 02:01:11;;;;;;;50.50;23.27;;;2.70;99.90;;;;;;5052002;28;20502;-60
2024/02/29 02:03:38;;;;;;;46.43;21.93;;;2.70;99.90;;;;;;5045322;28;20666;-60
2024/02/29 02:06:04;;;;;;;47.33;22.10;;;2.80;99.90;;;;;;5046813;28;20182;-59
2024/02/29 02:08:31;;;;;;;59.40;22.83;;;2.80;99.90;;;;;;5043463;28;20453;-60
2024/02/29 02:10:57;;;;;;;54.67;22.33;;;2.80;99.90;;;;;;5050166;28;20432;-60
2024/02/29 02:13:23;;;;;;;54.63;22.20;;;2.80;99.90;;;;;;5048496;28;20847;-60
2024/02/29 02:15:48;;;;;;;51.40;22.33;;;2.90;99.90;;;;;;5051308;28;20175;-59
2024/02/29 02:18:14;;;;;;;43.67;19.73;;;2.90;99.90;;;;;;5050796;28;20212;-60
2024/02/29 02:20:40;;;;;;;52.23;23.00;;;2.90;99.90;;;;;;5053841;28;20183;-60
2024/02/29 02:23:05;;;;;;;53.00;22.97;;;2.90;99.90;;;;;;5044694;28;20202;-60
2024/02/29 02:25:31;;;;;;;49.47;23.07;;;3.00;99.90;;;;;;5051689;28;20187;-60
2024/02/29 02:27:57;;;;;;;51.37;22.57;;;3.00;99.90;;;;;;5050939;28;20195;-59
2024/02/29 02:30:22;;;;;;;50.70;23.03;;;3.00;99.90;;;;;;5042738;28;20680;-59
2024/02/29 02:32:48;;;;;;;48.93;22.40;;;3.00;99.90;;;;;;5048878;28;20187;-59
2024/02/29 02:35:14;;;;;;;52.57;22.60;;;3.10;99.90;;;;;;5046211;28;20679;-60
2024/02/29 02:37:40;;;;;;;62.73;25.90;;;3.20;99.90;;;;;;5048639;28;20203;-60
2024/02/29 02:40:06;;;;;;;63.30;26.03;;;3.20;99.90;;;;;;5048273;28;20187;-59
2024/02/29 02:42:32;;;;;;;57.77;24.27;;;3.20;99.90;;;;;;5047574;28;20534;-60
2024/02/29 02:44:58;;;;;;;54.37;23.83;;;3.30;99.90;;;;;;5040777;28;20422;-59
2024/02/29 02:47:23;;;;;;;60.23;24.37;;;3.30;99.90;;;;;;5048487;28;20238;-59
2024/02/29 02:49:49;;;;;;;56.37;24.87;;;3.30;99.90;;;;;;5053602;28;20190;-59
2024/02/29 02:52:14;;;;;;;53.40;23.67;;;3.30;99.90;;;;;;5029725;28;20190;-59
2024/02/29 02:54:40;;;;;;;62.57;24.67;;;3.30;99.90;;;;;;5047762;28;20670;-60
2024/02/29 02:57:06;;;;;;;51.93;23.30;;;3.30;99.90;;;;;;5048713;28;20184;-60
2024/02/29 02:59:31;;;;;;;52.27;23.97;;;3.30;99.90;;;;;;5057123;28;20222;-59
2024/02/29 03:01:57;;;;;;;51.00;23.50;;;3.30;99.90;;;;;;5052916;28;20681;-59
2024/02/29 03:04:23;;;;;;;53.27;21.90;;;3.30;99.90;;;;;;5057345;28;20175;-59
2024/02/29 03:06:48;;;;;;;53.93;22.80;;;3.30;99.90;;;;;;5053568;28;20293;-60
2024/02/29 03:09:14;;;;;;;55.83;23.20;;;3.30;99.90;;;;;;5051496;28;20190;-60
2024/02/29 03:11:40;;;;;;;56.07;23.57;;;3.30;99.90;;;;;;5046016;28;20183;-59
2024/02/29 03:14:05;;;;;;;54.83;24.80;;;3.30;99.90;;;;;;5035731;28;20179;-59
2024/02/29 03:16:35;;;;;;;52.23;23.97;;;3.30;99.90;;;;;;5051576;28;20301;-59
2024/02/29 03:19:01;;;;;;;58.20;23.70;;;3.30;99.90;;;;;;5053749;28;20191;-59
2024/02/29 03:21:28;;;;;;;55.40;23.27;;;3.30;99.90;;;;;;5052975;28;20449;-60
2024/02/29 03:23:53;;;;;;;54.27;24.37;;;3.30;99.90;;;;;;5051641;28;20429;-59
2024/02/29 03:26:19;;;;;;;52.93;23.00;;;3.30;99.90;;;;;;5051859;28;20420;-59
2024/02/29 03:28:45;;;;;;;64.03;24.33;;;3.30;99.90;;;;;;5051674;28;20198;-59
2024/02/29 03:31:13;;;;;;;60.60;24.60;;;3.30;99.90;;;;;;5055180;28;20194;-59
2024/02/29 03:33:42;;;;;;;51.47;23.63;;;3.30;99.90;;;;;;5046811;28;20179;-59
2024/02/29 03:36:08;;;;;;;51.10;22.33;;;3.30;99.90;;;;;;5050808;28;20429;-58
2024/02/29 03:38:35;;;;;;;54.00;22.70;;;3.30;99.90;;;;;;5052355;28;20813;-60
2024/02/29 03:41:01;;;;;;;53.77;24.40;;;3.30;99.90;;;;;;5054589;28;21197;-59
2024/02/29 03:43:27;;;;;;;49.30;21.10;;;3.30;99.90;;;;;;5054785;28;20504;-59
2024/02/29 03:45:53;;;;;;;51.87;22.33;;;3.30;99.90;;;;;;5049576;28;20179;-59
2024/02/29 03:48:18;;;;;;;46.77;22.00;;;3.30;99.90;;;;;;5051634;28;20476;-59
2024/02/29 03:50:44;;;;;;;47.37;21.87;;;3.30;99.90;;;;;;5054038;28;20214;-59
2024/02/29 03:53:10;;;;;;;48.40;21.53;;;3.30;99.90;;;;;;5052650;28;20301;-59
2024/02/29 03:55:36;;;;;;;52.37;23.80;;;3.30;99.90;;;;;;5030938;28;20600;-60
2024/02/29 03:58:03;;;;;;;43.93;21.40;;;3.30;99.90;;;;;;5048913;28;20440;-59
2024/02/29 04:00:28;;;;;;;47.90;22.20;;;3.20;99.90;;;;;;5045928;28;20434;-60
2024/02/29 04:02:54;;;;;;;50.47;20.97;;;3.20;99.90;;;;;;5051016;28;20523;-60
2024/02/29 04:05:24;;;;;;;42.33;21.90;;;3.20;99.90;;;;;;5052502;28;20558;-60
2024/02/29 04:07:50;;;;;;;52.23;21.33;;;3.20;99.90;;;;;;5055030;28;20202;-60
2024/02/29 04:10:16;;;;;;;58.20;24.57;;;3.20;99.90;;;;;;5053654;28;20424;-59
2024/02/29 04:12:41;;;;;;;66.60;25.73;;;3.10;99.90;;;;;;5056017;28;20426;-60
2024/02/29 04:15:08;;;;;;;64.30;25.90;;;3.10;99.90;;;;;;5049776;28;20201;-60
2024/02/29 04:17:33;;;;;;;72.00;24.67;;;3.10;99.90;;;;;;5053063;28;20214;-61
2024/02/29 04:19:59;;;;;;;68.07;25.73;;;3.10;99.90;;;;;;5037826;28;20483;-60
2024/02/29 04:22:24;;;;;;;59.90;24.50;;;3.10;99.90;;;;;;5049735;28;20195;-60
2024/02/29 04:24:51;;;;;;;57.63;23.50;;;3.10;99.90;;;;;;5049025;28;20209;-59
2024/02/29 04:27:16;;;;;;;65.30;25.13;;;3.10;99.90;;;;;;5050221;28;20680;-60
2024/02/29 04:29:45;;;;;;;61.37;23.77;;;3.10;99.90;;;;;;5045218;28;20433;-60
2024/02/29 04:32:11;;;;;;;71.93;25.07;;;3.10;99.90;;;;;;5051646;28;20324;-60
2024/02/29 04:34:37;;;;;;;68.87;26.90;;;3.10;99.90;;;;;;5050529;28;21011;-60
2024/02/29 04:37:03;;;;;;;58.93;24.03;;;3.10;99.90;;;;;;5050471;28;21039;-61
2024/02/29 04:39:28;;;;;;;62.93;25.47;;;3.10;99.90;;;;;;5052001;28;20203;-60
2024/02/29 04:41:54;;;;;;;64.80;24.23;;;3.10;99.90;;;;;;5050390;28;20231;-59
2024/02/29 04:44:19;;;;;;;58.43;23.30;;;3.10;99.90;;;;;;5050638;28;20775;-61
2024/02/29 04:46:45;;;;;;;51.67;19.87;;;3.10;99.90;;;;;;5048370;28;20179;-60
2024/02/29 04:49:11;;;;;;;47.30;21.40;;;3.10;99.90;;;;;;5051896;28;20199;-59
2024/02/29 04:51:36;;;;;;;54.73;22.30;;;3.10;99.90;;;;;;5031182;28;20229;-59
2024/02/29 04:54:02;;;;;;;58.43;22.13;;;3.10;99.90;;;;;;5047828;28;20915;-60
2024/02/29 04:56:28;;;;;;;54.93;21.60;;;3.10;99.90;;;;;;5051905;28;20261;-60
2024/02/29 04:58:53;;;;;;;46.03;20.53;;;3.00;99.90;;;;;;5031933;28;20199;-60
2024/02/29 05:01:19;;;;;;;45.73;20.73;;;3.00;99.90;;;;;;5025036;28;20631;-59
2024/02/29 05:03:45;;;;;;;65.47;21.83;;;3.00;99.90;;;;;;5040696;28;20172;-60
2024/02/29 05:06:15;;;;;;;49.80;20.00;;;3.00;99.90;;;;;;5045041;28;20182;-58
2024/02/29 05:08:41;;;;;;;50.97;19.40;;;3.00;99.90;;;;;;5044423;28;20192;-60
2024/02/29 05:11:10;;;;;;;44.03;19.83;;;2.90;99.90;;;;;;5053151;28;20516;-59
2024/02/29 05:13:36;;;;;;;43.90;19.80;;;2.90;99.90;;;;;;5047060;28;20492;-60
2024/02/29 05:16:05;;;;;;;52.27;20.57;;;2.90;99.90;;;;;;5053578;28;20927;-60
2024/02/29 05:18:31;;;;;;;87.27;22.03;;;2.90;99.90;;;;;;5044285;28;20199;-60
2024/02/29 05:20:56;;;;;;;62.87;19.70;;;2.90;99.90;;;;;;5043713;28;20492;-61
2024/02/29 05:23:22;;;;;;;49.80;20.23;;;2.90;99.90;;;;;;5045582;28;20822;-60
2024/02/29 05:25:47;;;;;;;62.20;21.23;;;2.90;99.90;;;;;;5048534;28;20178;-60
2024/02/29 05:28:13;;;;;;;59.23;21.67;;;2.90;99.90;;;;;;5048578;28;20278;-60
2024/02/29 05:30:39;;;;;;;54.63;21.17;;;2.90;99.90;;;;;;5048175;28;20168;-60
2024/02/29 05:33:05;;;;;;;52.80;21.53;;;2.90;99.90;;;;;;5036454;28;20663;-62
2024/02/29 05:35:33;;;;;;;45.90;19.50;;;2.90;99.90;;;;;;5044156;28;20182;-60
2024/02/29 05:37:58;;;;;;;63.03;22.63;;;2.90;99.90;;;;;;5047113;28;20191;-60
2024/02/29 05:40:26;;;;;;;62.80;21.80;;;2.90;99.90;;;;;;5055510;28;20405;-60
2024/02/29 05:42:52;;;;;;;50.27;21.07;;;3.00;99.90;;;;;;5048578;28;20200;-60
2024/02/29 05:45:18;;;;;;;51.87;20.37;;;2.90;99.90;;;;;;5046292;28;20425;-60
2024/02/29 05:47:44;;;;;;;54.57;21.37;;;3.00;99.90;;;;;;5038833;28;21058;-59
2024/02/29 05:50:09;;;;;;;49.73;20.40;;;2.90;99.90;;;;;;5044452;28;20182;-56
2024/02/29 05:52:36;;;;;;;52.53;20.50;;;2.90;99.90;;;;;;5044396;28;20182;-61
2024/02/29 05:55:02;;;;;;;57.47;20.30;;;2.90;99.90;;;;;;5047019;28;20224;-60
2024/02/29 05:57:31;;;;;;;50.57;20.13;;;2.90;99.90;;;;;;5045272;28;20436;-60
2024/02/29 06:00:00;;;;;;;50.23;19.90;;;2.90;99.90;;;;;;5045754;28;20440;-60
2024/02/29 06:02:26;;;;;;;63.63;21.53;;;2.90;99.90;;;;;;5048056;28;20534;-60
2024/02/29 06:04:52;;;;;;;47.10;19.63;;;2.90;99.90;;;;;;5044281;28;20449;-56
2024/02/29 06:07:17;;;;;;;51.77;20.00;;;2.90;99.90;;;;;;5046392;28;20428;-62
2024/02/29 06:09:43;;;;;;;62.57;21.77;;;2.90;99.90;;;;;;5042567;28;20202;-60
2024/02/29 06:12:09;;;;;;;61.57;21.80;;;2.90;99.90;;;;;;5046282;28;20556;-61
2024/02/29 06:14:34;;;;;;;63.43;20.83;;;2.90;99.90;;;;;;5044311;28;20214;-60
2024/02/29 06:17:01;;;;;;;74.60;22.93;;;2.90;99.90;;;;;;5043026;28;20175;-59
2024/02/29 06:19:27;;;;;;;75.57;21.27;;;2.90;99.90;;;;;;5040299;28;20248;-59
2024/02/29 06:21:52;;;;;;;64.87;21.03;;;2.90;99.90;;;;;;5047127;28;20525;-60
2024/02/29 06:24:18;;;;;;;58.63;21.60;;;2.90;99.90;;;;;;5047273;28;20414;-61
2024/02/29 06:26:48;;;;;;;67.57;22.10;;;2.90;99.90;;;;;;5046343;28;20171;-59
2024/02/29 06:29:13;;;;;;;60.80;19.57;;;2.90;99.90;;;;;;5046168;28;20514;-60
2024/02/29 06:31:42;;;;;;;57.77;21.83;;;2.90;99.90;;;;;;5050369;28;20418;-60
2024/02/29 06:34:08;;;;;;;60.70;20.30;;;2.90;99.90;;;;;;5048653;28;20582;-59
2024/02/29 06:36:33;;;;;;;62.63;21.27;;;2.90;99.90;;;;;;5047400;28;20445;-59
2024/02/29 06:38:59;;;;;;;65.20;22.90;;;2.90;99.90;;;;;;5045641;28;20199;-59
2024/02/29 06:41:24;;;;;;;57.20;22.07;;;2.90;99.90;;;;;;5046824;28;20677;-61
2024/02/29 06:43:50;;;;;;;63.07;23.10;;;2.80;99.90;;;;;;5048354;28;20171;-59
2024/02/29 06:46:16;;;;;;;64.43;22.70;;;2.80;99.90;;;;;;5042155;28;20179;-59
2024/02/29 06:48:42;;;;;;;70.93;22.83;;;2.80;99.90;;;;;;5042047;28;20211;-59
2024/02/29 06:51:08;;;;;;;87.63;22.90;;;2.90;99.90;;;;;;5045201;28;20419;-59
2024/02/29 06:53:33;;;;;;;55.73;21.20;;;2.90;99.90;;;;;;5028359;28;20596;-60
2024/02/29 06:55:59;;;;;;;63.53;22.00;;;2.90;99.90;;;;;;5044120;28;20244;-59
2024/02/29 06:58:25;;;;;;;58.50;21.00;;;2.90;99.90;;;;;;5046762;28;20195;-59
2024/02/29 07:00:50;;;;;;;56.67;22.77;;;2.90;99.90;;;;;;5053827;28;21114;-59
2024/02/29 07:03:16;;;;;;;55.53;20.77;;;2.90;99.90;;;;;;5044467;28;20746;-60
2024/02/29 07:05:42;;;;;;;52.23;21.77;;;2.90;99.90;;;;;;5045352;28;20171;-60
2024/02/29 07:08:09;;;;;;;52.87;20.77;;;2.90;99.90;;;;;;5030977;28;20191;-60
2024/02/29 07:10:35;;;;;;;54.43;21.40;;;3.00;99.90;;;;;;5047506;28;20198;-59
2024/02/29 07:13:00;;;;;;;53.80;22.40;;;3.00;99.90;;;;;;5045814;28;20417;-59
2024/02/29 07:15:26;;;;;;;54.13;21.60;;;3.00;99.90;;;;;;5047679;28;20807;-59
2024/02/29 07:17:51;;;;;;;55.90;22.83;;;2.90;99.90;;;;;;5045922;28;20203;-60
2024/02/29 07:20:17;;;;;;;59.60;22.53;;;2.90;99.90;;;;;;5041629;28;20181;-59
2024/02/29 07:22:45;;;;;;;65.67;22.40;;;2.90;99.90;;;;;;5044016;28;20202;-60
2024/02/29 07:25:12;;;;;;;50.00;20.63;;;2.90;99.90;;;;;;5047983;28;20499;-59
2024/02/29 07:27:40;;;;;;;51.30;20.40;;;2.90;99.90;;;;;;5046022;28;20521;-60
2024/02/29 07:30:09;;;;;;;50.63;21.10;;;2.90;99.90;;;;;;5045276;28;20430;-60
2024/02/29 07:32:35;;;;;;;50.27;19.97;;;2.90;99.90;;;;;;5044067;28;20423;-59
2024/02/29 07:35:01;;;;;;;50.60;21.27;;;3.00;99.90;;;;;;5040482;28;20776;-60
2024/02/29 07:37:28;;;;;;;51.90;20.70;;;3.00;99.90;;;;;;5045947;28;20179;-61
2024/02/29 07:39:54;;;;;;;61.30;22.73;;;3.00;99.90;;;;;;5045413;28;20666;-61
2024/02/29 07:42:20;;;;;;;57.53;22.50;;;3.00;99.90;;;;;;5046861;28;20540;-61
2024/02/29 07:44:45;;;;;;;50.10;21.50;;;3.00;99.90;;;;;;5049342;28;20876;-61
2024/02/29 07:47:11;;;;;;;61.67;23.07;;;3.10;99.90;;;;;;5045122;28;20186;-59
2024/02/29 07:49:36;;;;;;;53.13;21.93;;;3.10;99.90;;;;;;5047295;28;20210;-60
2024/02/29 07:52:04;;;;;;;53.23;20.30;;;3.10;99.90;;;;;;5050600;28;20240;-59
2024/02/29 07:54:29;;;;;;;59.43;21.23;;;3.10;99.90;;;;;;5050047;28;20668;-60
2024/02/29 07:56:56;;;;;;;49.87;20.17;;;3.20;99.90;;;;;;5048517;28;20436;-58
2024/02/29 07:59:23;;;;;;;50.93;20.77;;;3.10;99.90;;;;;;5050075;28;20458;-60
2024/02/29 08:01:48;;;;;;;49.50;21.50;;;3.20;99.90;;;;;;5051392;28;20480;-60
2024/02/29 08:04:14;;;;;;;55.50;21.80;;;3.20;99.90;;;;;;5048843;28;20423;-60
2024/02/29 08:06:39;;;;;;;42.90;20.77;;;3.20;99.90;;;;;;5044154;28;20182;-59
2024/02/29 08:09:05;;;;;;;49.70;20.03;;;3.30;99.90;;;;;;5048185;28;20195;-59
2024/02/29 08:11:31;;;;;;;40.47;17.97;;;3.40;99.90;;;;;;5051064;28;20542;-60
2024/02/29 08:13:56;;;;;;;45.43;21.50;;;3.40;99.90;;;;;;5031354;28;20266;-60
2024/02/29 08:16:22;;;;;;;53.33;21.03;;;3.40;99.90;;;;;;5053469;28;20194;-60
2024/02/29 08:18:47;;;;;;;54.20;24.77;;;3.50;99.90;;;;;;5049225;28;20276;-59
2024/02/29 08:21:14;;;;;;;58.30;24.10;;;3.50;99.90;;;;;;5052519;28;20210;-61
2024/02/29 08:23:39;;;;;;;53.93;20.90;;;3.60;99.90;;;;;;5048044;28;20191;-59
2024/02/29 08:26:09;;;;;;;46.83;19.80;;;3.70;99.90;;;;;;5051061;28;20956;-59
2024/02/29 08:28:35;;;;;;;40.87;17.80;;;3.70;99.90;;;;;;5047396;28;20278;-59
2024/02/29 08:31:01;;;;;;;53.50;18.90;;;3.70;99.90;;;;;;5047729;28;20442;-60
2024/02/29 08:33:26;;;;;;;43.93;19.37;;;3.80;99.90;;;;;;5051835;28;20460;-59
2024/02/29 08:35:52;;;;;;;46.03;19.77;;;3.80;99.90;;;;;;5049375;28;20265;-60
2024/02/29 08:38:18;;;;;;;52.50;19.87;;;3.90;99.90;;;;;;5037255;28;20237;-60
2024/02/29 08:40:43;;;;;;;41.60;18.60;;;3.90;99.90;;;;;;5048073;28;20177;-59
2024/02/29 08:43:09;;;;;;;42.70;19.13;;;4.00;99.90;;;;;;5039971;28;20207;-59
2024/02/29 08:45:34;;;;;;;44.10;17.70;;;4.00;99.90;;;;;;5032521;28;20205;-60
2024/02/29 08:48:00;;;;;;;40.70;18.73;;;4.10;99.90;;;;;;5047177;28;20207;-61
2024/02/29 08:50:26;;;;;;;42.27;19.27;;;4.20;99.90;;;;;;5049252;28;20186;-59
2024/02/29 08:52:51;;;;;;;45.30;18.07;;;4.20;99.90;;;;;;5050575;28;20258;-59
2024/02/29 08:55:17;;;;;;;38.37;19.23;;;4.30;99.90;;;;;;5049380;28;20171;-60
2024/02/29 08:57:43;;;;;;;48.20;17.40;;;4.40;99.90;;;;;;5052003;28;20208;-60
2024/02/29 09:00:09;;;;;;;41.93;17.60;;;4.50;99.90;;;;;;5047851;28;20183;-61
2024/02/29 09:02:35;;;;;;;40.40;16.73;;;4.50;99.90;;;;;;5042348;28;20211;-60
2024/02/29 09:05:01;;;;;;;41.97;18.83;;;4.60;99.90;;;;;;5030595;28;20428;-60
2024/02/29 09:07:26;;;;;;;39.80;17.30;;;4.60;99.90;;;;;;5030979;28;20797;-58
2024/02/29 09:09:52;;;;;;;42.57;19.00;;;4.70;99.90;;;;;;5046732;28;20183;-60
2024/02/29 09:12:18;;;;;;;44.50;18.57;;;4.70;99.90;;;;;;5041321;28;20189;-60
2024/02/29 09:14:48;;;;;;;41.27;18.20;;;4.80;99.90;;;;;;5043657;28;20175;-60
2024/02/29 09:17:14;;;;;;;68.23;21.17;;;4.80;99.90;;;;;;5049774;28;20844;-60
2024/02/29 09:19:40;;;;;;;49.60;20.90;;;4.80;99.90;;;;;;5029710;28;20468;-60
2024/02/29 09:22:05;;;;;;;49.83;20.60;;;4.90;99.90;;;;;;5052176;28;20481;-60
2024/02/29 09:24:31;;;;;;;48.60;19.40;;;4.90;99.90;;;;;;5049548;28;20171;-60
2024/02/29 09:26:57;;;;;;;51.83;21.03;;;4.90;99.90;;;;;;5029457;28;20713;-61
2024/02/29 09:29:22;;;;;;;46.33;19.23;;;5.00;99.90;;;;;;5049036;28;20787;-60
2024/02/29 09:31:49;;;;;;;43.77;19.83;;;5.00;99.90;;;;;;5046802;28;20183;-59
2024/02/29 09:34:14;;;;;;;48.17;20.57;;;5.10;99.90;;;;;;5043829;28;20387;-60
2024/02/29 09:36:40;;;;;;;47.73;20.40;;;5.10;99.90;;;;;;5041918;28;20960;-60
2024/02/29 09:39:06;;;;;;;59.60;20.07;;;5.20;99.90;;;;;;5024733;28;20199;-61
2024/02/29 09:41:32;;;;;;;49.03;20.30;;;5.20;99.90;;;;;;5045599;28;20768;-60
2024/02/29 09:43:59;;;;;;;47.73;19.93;;;5.30;99.90;;;;;;5043753;28;20171;-60
2024/02/29 09:46:25;;;;;;;43.83;20.10;;;5.30;99.90;;;;;;5050617;28;20455;-62
2024/02/29 09:48:52;;;;;;;43.77;19.10;;;5.40;99.90;;;;;;5047193;28;20450;-61
2024/02/29 09:51:20;;;;;;;46.33;19.67;;;5.40;99.90;;;;;;5051090;28;20205;-61
2024/02/29 09:53:51;;;;;;;37.80;17.90;;;5.50;99.90;;;;;;5047990;28;20413;-62
2024/02/29 09:56:22;;;;;;;45.27;19.53;;;5.50;99.90;;;;;;5046701;28;20416;-61
2024/02/29 09:58:50;;;;;;;50.43;20.47;;;5.60;99.90;;;;;;5031399;28;20452;-62
2024/02/29 10:01:16;;;;;;;46.93;20.97;;;5.60;99.90;;;;;;5045376;28;21013;-62
2024/02/29 10:03:42;;;;;;;48.63;21.10;;;5.70;99.90;;;;;;5029293;28;20429;-61
2024/02/29 10:06:09;;;;;;;50.10;20.27;;;5.80;99.90;;;;;;5047938;28;20179;-61
2024/02/29 10:08:35;;;;;;;41.33;19.33;;;5.80;99.90;;;;;;5040836;28;20481;-62
2024/02/29 10:11:02;;;;;;;43.00;18.57;;;5.80;99.90;;;;;;5047365;28;20997;-61
2024/02/29 10:13:41;;;;;;;43.90;19.70;;;5.90;99.90;;;;;;5049175;28;20417;-61
2024/02/29 10:16:11;;;;;;;37.90;18.17;;;6.00;99.90;;;;;;5048432;28;20409;-61
2024/02/29 10:18:38;;;;;;;42.43;20.07;;;6.10;99.90;;;;;;5046675;28;20441;-61
2024/02/29 10:21:11;;;;;;;42.57;18.40;;;6.10;99.90;;;;;;5048784;28;20422;-61
2024/02/29 10:23:37;;;;;;;47.73;19.40;;;6.20;99.90;;;;;;5046204;28;20429;-61
2024/02/29 10:26:03;;;;;;;39.67;18.63;;;6.20;99.90;;;;;;5029989;28;20422;-62
2024/02/29 10:28:30;;;;;;;41.97;19.17;;;6.30;99.90;;;;;;5044631;28;20480;-61
2024/02/29 10:30:58;;;;;;;45.60;21.60;;;6.40;99.90;;;;;;5046565;28;20199;-61
2024/02/29 10:33:25;;;;;;;46.77;20.23;;;6.50;99.90;;;;;;5045653;28;20466;-61
2024/02/29 10:35:52;;;;;;;40.97;19.50;;;6.50;99.90;;;;;;5027728;28;20438;-61
2024/02/29 10:38:18;;;;;;;39.83;19.50;;;6.60;99.90;;;;;;5046467;28;20433;-62
2024/02/29 10:40:49;;;;;;;42.53;20.03;;;6.70;99.90;;;;;;5045109;28;20430;-61
2024/02/29 10:43:17;;;;;;;40.67;18.43;;;6.80;99.90;;;;;;5045243;28;20227;-63
2024/02/29 10:45:47;;;;;;;39.80;17.93;;;6.90;99.90;;;;;;5044266;28;20425;-61
2024/02/29 10:48:21;;;;;;;43.23;19.17;;;7.00;99.90;;;;;;5027952;28;20488;-63
2024/02/29 10:51:03;;;;;;;41.20;17.80;;;7.00;99.80;;;;;;5041285;28;20429;-62
2024/02/29 10:53:48;;;;;;;43.57;17.33;;;7.10;99.90;;;;;;5047439;28;20418;-62
2024/02/29 10:56:23;;;;;;;39.07;17.83;;;7.10;99.10;;;;;;5044628;28;20425;-63
2024/02/29 10:58:53;;;;;;;33.43;16.60;;;7.20;98.70;;;;;;5047851;28;20473;-62
2024/02/29 11:01:19;;;;;;;36.10;16.97;;;7.20;99.30;;;;;;5043020;28;20530;-57
2024/02/29 11:03:45;;;;;;;38.80;16.63;;;7.20;96.70;;;;;;5021934;28;20442;-58
2024/02/29 11:06:12;;;;;;;32.33;15.07;;;7.20;96.40;;;;;;5047929;28;20175;-58
2024/02/29 11:08:39;;;;;;;33.30;15.80;;;7.20;95.90;;;;;;5045076;28;20460;-57
2024/02/29 11:11:11;;;;;;;34.53;15.33;;;7.20;95.40;;;;;;5048829;28;20428;-58
2024/02/29 11:13:37;;;;;;;36.80;15.90;;;7.30;93.10;;;;;;5048619;28;20452;-58
2024/02/29 11:16:09;;;;;;;27.90;13.50;;;7.30;94.80;;;;;;5047944;28;20864;-57
2024/02/29 11:18:37;;;;;;;25.53;13.17;;;7.30;94.00;;;;;;5047645;28;20205;-58
2024/02/29 11:21:04;;;;;;;30.17;14.47;;;7.40;93.40;;;;;;5026680;28;20899;-58
2024/02/29 11:23:35;;;;;;;30.57;15.73;;;7.40;91.90;;;;;;5048089;28;20993;-58
2024/02/29 11:26:01;;;;;;;33.57;15.00;;;7.50;90.10;;;;;;5050193;28;20429;-58
2024/02/29 11:28:32;;;;;;;29.90;14.30;;;7.50;87.00;;;;;;5045310;28;20528;-58
2024/02/29 11:31:11;;;;;;;27.03;14.50;;;7.50;88.80;;;;;;5043388;28;20422;-56
2024/02/29 11:33:37;;;;;;;29.00;14.03;;;7.50;88.70;;;;;;5041139;28;21101;-57
2024/02/29 11:36:04;;;;;;;30.20;14.90;;;7.60;89.10;;;;;;5047078;28;20426;-58
2024/02/29 11:38:33;;;;;;;30.97;14.97;;;7.60;90.20;;;;;;5045916;28;20195;-61
2024/02/29 11:40:59;;;;;;;30.33;15.57;;;7.70;88.00;;;;;;5049851;28;20437;-62
2024/02/29 11:43:25;;;;;;;31.17;14.40;;;7.70;82.30;;;;;;5051011;28;20422;-60
2024/02/29 11:45:50;;;;;;;33.43;14.90;;;7.70;85.40;;;;;;5050979;28;20409;-62
2024/02/29 11:48:16;;;;;;;29.90;15.20;;;7.70;86.10;;;;;;5047046;28;20581;-62
2024/02/29 11:50:42;;;;;;;30.17;14.37;;;7.80;86.00;;;;;;5048346;28;20183;-62
2024/02/29 11:53:07;;;;;;;31.97;15.37;;;7.90;86.10;;;;;;5049030;28;20175;-61
2024/02/29 11:55:34;;;;;;;33.07;16.07;;;8.00;84.40;;;;;;5048543;28;20721;-60
2024/02/29 11:58:01;;;;;;;31.33;14.07;;;8.10;82.70;;;;;;5046292;28;20195;-61
2024/02/29 12:00:28;;;;;;;28.30;13.40;;;8.10;81.90;;;;;;5050276;28;20413;-61
2024/02/29 12:02:54;;;;;;;35.60;15.60;;;8.20;81.30;;;;;;5050803;28;20444;-61
2024/02/29 12:05:19;;;;;;;32.63;15.97;;;8.30;81.70;;;;;;5051082;28;20425;-62
2024/02/29 12:07:45;;;;;;;27.47;14.90;;;8.40;82.10;;;;;;5046580;28;20195;-62
2024/02/29 12:10:11;;;;;;;29.27;15.17;;;8.50;79.60;;;;;;5041956;28;20187;-62
2024/02/29 12:12:37;;;;;;;33.43;15.67;;;8.70;80.60;;;;;;5050323;28;20474;-63
2024/02/29 12:15:07;;;;;;;34.23;16.80;;;9.20;81.20;;;;;;5049239;28;20182;-62
2024/02/29 12:17:33;;;;;;;31.13;14.57;;;10.00;76.80;;;;;;5048112;28;20563;-62
2024/02/29 12:20:00;;;;;;;31.10;14.67;;;10.90;70.80;;;;;;5047704;28;20989;-62
2024/02/29 12:22:25;;;;;;;27.60;13.90;;;11.80;66.10;;;;;;5047620;28;21137;-57
2024/02/29 12:24:51;;;;;;;31.87;15.30;;;12.50;61.90;;;;;;5050610;28;20424;-58
2024/02/29 12:27:17;;;;;;;27.17;14.20;;;13.20;60.00;;;;;;5047079;28;20286;-59
2024/02/29 12:29:44;;;;;;;31.07;15.37;;;13.50;57.70;;;;;;5030270;28;20171;-62
2024/02/29 12:32:09;;;;;;;28.37;14.97;;;13.70;56.50;;;;;;5049339;28;20179;-62